Terminal Aerodrome Forecast
Issued by NWS

Home | Current Version | Previous Version | Text Only | Print | Product List | Glossary On
Versions: 1 2 3 4 5 6 7 8 9 10 11 12 13 14 15 16 17
151
FTUS43 KDVN 151748
TAFCID
TAF
KCID 151748Z 1518/1618 12005KT P6SM BKN100
     FM160700 10004KT 5SM -SNPL BR BKN009
     FM160900 09006KT 4SM -FZRA BR OVC007
     FM161600 09008KT 3SM RA BR OVC005=

USA.gov is the U.S. government's official web portal to all federal, state and local government web resources and services.